sensor_id;sensor_type;location;lat;lon;timestamp;P1;durP1;ratioP1;P2;durP2;ratioP2
8230;SDS011;4156;50.908;6.974;2022-09-28T00:01:42;2.43;;;1.60;;
8230;SDS011;4156;50.908;6.974;2022-09-28T00:04:08;2.13;;;1.80;;
8230;SDS011;4156;50.908;6.974;2022-09-28T00:06:35;1.80;;;1.57;;
8230;SDS011;4156;50.908;6.974;2022-09-28T00:09:01;2.03;;;1.80;;
8230;SDS011;4156;50.908;6.974;2022-09-28T00:11:27;1.60;;;1.50;;
8230;SDS011;4156;50.908;6.974;2022-09-28T00:13:54;2.77;;;1.40;;
8230;SDS011;4156;50.908;6.974;2022-09-28T00:16:23;5.30;;;1.80;;
8230;SDS011;4156;50.908;6.974;2022-09-28T00:18:50;1.40;;;1.30;;
8230;SDS011;4156;50.908;6.974;2022-09-28T00:21:18;2.40;;;1.40;;
8230;SDS011;4156;50.908;6.974;2022-09-28T00:23:53;2.50;;;1.47;;
8230;SDS011;4156;50.908;6.974;2022-09-28T00:26:40;2.20;;;1.50;;
8230;SDS011;4156;50.908;6.974;2022-09-28T00:29:11;2.00;;;1.43;;
8230;SDS011;4156;50.908;6.974;2022-09-28T00:31:40;1.70;;;1.40;;
8230;SDS011;4156;50.908;6.974;2022-09-28T00:34:06;7.43;;;1.40;;
8230;SDS011;4156;50.908;6.974;2022-09-28T00:36:32;2.93;;;1.40;;
8230;SDS011;4156;50.908;6.974;2022-09-28T00:39:01;2.80;;;1.40;;
8230;SDS011;4156;50.908;6.974;2022-09-28T00:41:31;1.67;;;1.20;;
8230;SDS011;4156;50.908;6.974;2022-09-28T00:46:52;2.20;;;1.20;;
8230;SDS011;4156;50.908;6.974;2022-09-28T00:49:38;1.50;;;1.40;;
8230;SDS011;4156;50.908;6.974;2022-09-28T00:52:13;1.20;;;1.10;;
8230;SDS011;4156;50.908;6.974;2022-09-28T00:54:42;0.90;;;0.90;;
8230;SDS011;4156;50.908;6.974;2022-09-28T00:57:09;1.90;;;1.30;;
8230;SDS011;4156;50.908;6.974;2022-09-28T00:59:35;1.30;;;1.00;;
8230;SDS011;4156;50.908;6.974;2022-09-28T01:02:01;1.30;;;1.20;;
8230;SDS011;4156;50.908;6.974;2022-09-28T01:04:26;1.60;;;1.10;;
8230;SDS011;4156;50.908;6.974;2022-09-28T01:06:53;2.90;;;1.40;;
8230;SDS011;4156;50.908;6.974;2022-09-28T01:09:21;2.27;;;1.10;;
8230;SDS011;4156;50.908;6.974;2022-09-28T01:11:48;1.20;;;1.10;;
8230;SDS011;4156;50.908;6.974;2022-09-28T01:14:14;1.37;;;1.23;;
8230;SDS011;4156;50.908;6.974;2022-09-28T01:22:27;1.57;;;1.20;;
8230;SDS011;4156;50.908;6.974;2022-09-28T01:27:31;1.30;;;1.20;;
8230;SDS011;4156;50.908;6.974;2022-09-28T01:30:10;4.03;;;1.27;;
8230;SDS011;4156;50.908;6.974;2022-09-28T01:33:13;1.37;;;1.27;;
8230;SDS011;4156;50.908;6.974;2022-09-28T01:35:47;3.17;;;1.60;;
8230;SDS011;4156;50.908;6.974;2022-09-28T01:38:22;1.17;;;1.10;;
8230;SDS011;4156;50.908;6.974;2022-09-28T01:40:53;1.63;;;1.50;;
8230;SDS011;4156;50.908;6.974;2022-09-28T01:43:24;1.33;;;1.10;;
8230;SDS011;4156;50.908;6.974;2022-09-28T01:45:53;1.40;;;1.30;;
8230;SDS011;4156;50.908;6.974;2022-09-28T01:48:27;1.10;;;1.10;;
8230;SDS011;4156;50.908;6.974;2022-09-28T01:50:59;1.80;;;1.23;;
8230;SDS011;4156;50.908;6.974;2022-09-28T01:53:34;1.30;;;1.20;;
8230;SDS011;4156;50.908;6.974;2022-09-28T01:56:05;1.67;;;1.40;;
8230;SDS011;4156;50.908;6.974;2022-09-28T01:58:37;1.90;;;1.63;;
8230;SDS011;4156;50.908;6.974;2022-09-28T02:01:10;1.60;;;1.20;;
8230;SDS011;4156;50.908;6.974;2022-09-28T02:03:47;2.23;;;1.70;;
8230;SDS011;4156;50.908;6.974;2022-09-28T02:06:25;1.97;;;1.50;;
8230;SDS011;4156;50.908;6.974;2022-09-28T02:08:58;3.43;;;1.67;;
8230;SDS011;4156;50.908;6.974;2022-09-28T02:11:29;1.97;;;1.40;;
8230;SDS011;4156;50.908;6.974;2022-09-28T02:14:03;1.97;;;1.60;;
8230;SDS011;4156;50.908;6.974;2022-09-28T02:19:14;3.77;;;1.90;;
8230;SDS011;4156;50.908;6.974;2022-09-28T02:21:42;1.80;;;1.63;;
8230;SDS011;4156;50.908;6.974;2022-09-28T02:24:22;3.23;;;2.00;;
8230;SDS011;4156;50.908;6.974;2022-09-28T02:26:51;2.40;;;1.83;;
8230;SDS011;4156;50.908;6.974;2022-09-28T02:29:22;2.00;;;1.77;;
8230;SDS011;4156;50.908;6.974;2022-09-28T02:31:48;3.37;;;1.90;;
8230;SDS011;4156;50.908;6.974;2022-09-28T02:34:14;2.50;;;2.00;;
8230;SDS011;4156;50.908;6.974;2022-09-28T02:36:40;2.37;;;1.87;;
8230;SDS011;4156;50.908;6.974;2022-09-28T02:39:12;2.77;;;1.80;;
8230;SDS011;4156;50.908;6.974;2022-09-28T02:41:47;2.90;;;2.30;;
8230;SDS011;4156;50.908;6.974;2022-09-28T02:50:02;2.60;;;2.20;;
8230;SDS011;4156;50.908;6.974;2022-09-28T03:06:37;5.63;;;2.77;;
8230;SDS011;4156;50.908;6.974;2022-09-28T03:09:17;4.30;;;2.77;;
8230;SDS011;4156;50.908;6.974;2022-09-28T03:11:57;4.37;;;2.40;;
8230;SDS011;4156;50.908;6.974;2022-09-28T03:14:28;6.93;;;3.30;;
8230;SDS011;4156;50.908;6.974;2022-09-28T03:16:53;3.13;;;2.50;;
8230;SDS011;4156;50.908;6.974;2022-09-28T03:19:20;7.17;;;2.90;;
8230;SDS011;4156;50.908;6.974;2022-09-28T03:21:50;4.57;;;2.50;;
8230;SDS011;4156;50.908;6.974;2022-09-28T03:24:15;4.90;;;2.80;;
8230;SDS011;4156;50.908;6.974;2022-09-28T03:26:41;3.47;;;2.67;;
8230;SDS011;4156;50.908;6.974;2022-09-28T03:29:06;4.43;;;2.70;;
8230;SDS011;4156;50.908;6.974;2022-09-28T03:31:32;3.77;;;2.60;;
8230;SDS011;4156;50.908;6.974;2022-09-28T03:33:58;6.30;;;2.60;;
8230;SDS011;4156;50.908;6.974;2022-09-28T03:36:23;3.27;;;2.60;;
8230;SDS011;4156;50.908;6.974;2022-09-28T03:38:52;4.93;;;3.00;;
8230;SDS011;4156;50.908;6.974;2022-09-28T03:41:20;3.90;;;2.90;;
8230;SDS011;4156;50.908;6.974;2022-09-28T03:43:45;6.03;;;2.80;;
8230;SDS011;4156;50.908;6.974;2022-09-28T03:46:11;6.20;;;3.03;;
8230;SDS011;4156;50.908;6.974;2022-09-28T03:48:36;6.83;;;3.37;;
8230;SDS011;4156;50.908;6.974;2022-09-28T03:51:04;6.33;;;4.33;;
8230;SDS011;4156;50.908;6.974;2022-09-28T03:53:33;7.97;;;3.53;;
8230;SDS011;4156;50.908;6.974;2022-09-28T03:56:06;5.03;;;2.90;;
8230;SDS011;4156;50.908;6.974;2022-09-28T03:58:37;6.40;;;3.90;;
8230;SDS011;4156;50.908;6.974;2022-09-28T04:01:06;7.17;;;3.83;;
8230;SDS011;4156;50.908;6.974;2022-09-28T04:03:36;6.60;;;4.13;;
8230;SDS011;4156;50.908;6.974;2022-09-28T04:06:01;5.00;;;3.77;;
8230;SDS011;4156;50.908;6.974;2022-09-28T04:08:27;4.47;;;3.73;;
8230;SDS011;4156;50.908;6.974;2022-09-28T04:10:56;4.30;;;3.90;;
8230;SDS011;4156;50.908;6.974;2022-09-28T04:13:23;8.67;;;4.00;;
8230;SDS011;4156;50.908;6.974;2022-09-28T04:15:57;5.07;;;3.80;;
8230;SDS011;4156;50.908;6.974;2022-09-28T04:18:24;4.30;;;3.50;;
8230;SDS011;4156;50.908;6.974;2022-09-28T04:20:59;5.43;;;3.73;;
8230;SDS011;4156;50.908;6.974;2022-09-28T04:23:30;6.10;;;4.27;;
8230;SDS011;4156;50.908;6.974;2022-09-28T04:25:57;6.67;;;3.87;;
8230;SDS011;4156;50.908;6.974;2022-09-28T04:28:23;5.30;;;4.00;;
8230;SDS011;4156;50.908;6.974;2022-09-28T04:31:08;7.57;;;4.23;;
8230;SDS011;4156;50.908;6.974;2022-09-28T04:33:40;5.73;;;4.00;;
8230;SDS011;4156;50.908;6.974;2022-09-28T04:36:05;5.83;;;4.40;;
8230;SDS011;4156;50.908;6.974;2022-09-28T04:38:33;4.10;;;3.50;;
8230;SDS011;4156;50.908;6.974;2022-09-28T04:40:59;5.40;;;4.07;;
8230;SDS011;4156;50.908;6.974;2022-09-28T04:43:24;6.43;;;3.80;;
8230;SDS011;4156;50.908;6.974;2022-09-28T04:45:50;4.90;;;4.03;;
8230;SDS011;4156;50.908;6.974;2022-09-28T04:48:16;11.07;;;3.97;;
8230;SDS011;4156;50.908;6.974;2022-09-28T04:50:41;7.97;;;4.07;;
8230;SDS011;4156;50.908;6.974;2022-09-28T04:53:07;7.07;;;4.00;;
8230;SDS011;4156;50.908;6.974;2022-09-28T04:55:32;4.80;;;4.10;;
8230;SDS011;4156;50.908;6.974;2022-09-28T04:57:58;4.30;;;3.90;;
8230;SDS011;4156;50.908;6.974;2022-09-28T05:00:27;3.87;;;3.47;;
8230;SDS011;4156;50.908;6.974;2022-09-28T05:02:54;6.17;;;4.00;;
8230;SDS011;4156;50.908;6.974;2022-09-28T05:05:20;4.77;;;4.13;;
8230;SDS011;4156;50.908;6.974;2022-09-28T05:07:45;6.40;;;4.23;;
8230;SDS011;4156;50.908;6.974;2022-09-28T05:10:11;5.70;;;4.17;;
8230;SDS011;4156;50.908;6.974;2022-09-28T05:12:37;5.27;;;4.00;;
8230;SDS011;4156;50.908;6.974;2022-09-28T05:15:03;5.83;;;3.80;;
8230;SDS011;4156;50.908;6.974;2022-09-28T05:17:29;5.73;;;3.90;;
8230;SDS011;4156;50.908;6.974;2022-09-28T05:19:55;4.67;;;4.13;;
8230;SDS011;4156;50.908;6.974;2022-09-28T05:22:21;8.47;;;4.87;;
8230;SDS011;4156;50.908;6.974;2022-09-28T05:24:46;4.90;;;4.00;;
8230;SDS011;4156;50.908;6.974;2022-09-28T05:27:12;5.47;;;3.97;;
8230;SDS011;4156;50.908;6.974;2022-09-28T05:29:38;6.43;;;4.03;;
8230;SDS011;4156;50.908;6.974;2022-09-28T05:32:03;4.67;;;3.63;;
8230;SDS011;4156;50.908;6.974;2022-09-28T05:34:29;4.27;;;3.77;;
8230;SDS011;4156;50.908;6.974;2022-09-28T05:36:54;5.23;;;3.77;;
8230;SDS011;4156;50.908;6.974;2022-09-28T05:39:20;4.63;;;3.77;;
8230;SDS011;4156;50.908;6.974;2022-09-28T05:41:46;5.63;;;3.70;;
8230;SDS011;4156;50.908;6.974;2022-09-28T05:44:11;6.40;;;4.53;;
8230;SDS011;4156;50.908;6.974;2022-09-28T05:46:37;5.77;;;3.77;;
8230;SDS011;4156;50.908;6.974;2022-09-28T05:49:02;6.03;;;3.90;;
8230;SDS011;4156;50.908;6.974;2022-09-28T05:51:28;4.83;;;3.10;;
8230;SDS011;4156;50.908;6.974;2022-09-28T05:53:54;6.37;;;3.60;;
8230;SDS011;4156;50.908;6.974;2022-09-28T05:56:20;7.00;;;3.93;;
8230;SDS011;4156;50.908;6.974;2022-09-28T05:58:45;5.07;;;4.00;;
8230;SDS011;4156;50.908;6.974;2022-09-28T06:01:11;5.23;;;3.80;;
8230;SDS011;4156;50.908;6.974;2022-09-28T06:03:36;5.00;;;4.00;;
8230;SDS011;4156;50.908;6.974;2022-09-28T06:06:02;9.80;;;4.63;;
8230;SDS011;4156;50.908;6.974;2022-09-28T06:08:29;6.10;;;4.33;;
8230;SDS011;4156;50.908;6.974;2022-09-28T06:11:00;5.63;;;4.40;;
8230;SDS011;4156;50.908;6.974;2022-09-28T06:13:26;6.03;;;4.33;;
8230;SDS011;4156;50.908;6.974;2022-09-28T06:15:53;5.90;;;3.93;;
8230;SDS011;4156;50.908;6.974;2022-09-28T06:18:19;5.13;;;3.80;;
8230;SDS011;4156;50.908;6.974;2022-09-28T06:20:44;4.57;;;3.83;;
8230;SDS011;4156;50.908;6.974;2022-09-28T06:23:10;6.13;;;3.90;;
8230;SDS011;4156;50.908;6.974;2022-09-28T06:25:37;5.03;;;3.80;;
8230;SDS011;4156;50.908;6.974;2022-09-28T06:28:03;5.40;;;3.93;;
8230;SDS011;4156;50.908;6.974;2022-09-28T06:30:31;6.93;;;4.13;;
8230;SDS011;4156;50.908;6.974;2022-09-28T06:32:59;6.13;;;3.90;;
8230;SDS011;4156;50.908;6.974;2022-09-28T06:35:26;7.07;;;3.63;;
8230;SDS011;4156;50.908;6.974;2022-09-28T06:37:55;6.37;;;3.97;;
8230;SDS011;4156;50.908;6.974;2022-09-28T06:40:21;6.30;;;3.10;;
8230;SDS011;4156;50.908;6.974;2022-09-28T06:42:57;4.93;;;4.20;;
8230;SDS011;4156;50.908;6.974;2022-09-28T06:45:34;5.33;;;3.53;;
8230;SDS011;4156;50.908;6.974;2022-09-28T06:48:01;4.70;;;3.53;;
8230;SDS011;4156;50.908;6.974;2022-09-28T06:50:28;6.53;;;3.80;;
8230;SDS011;4156;50.908;6.974;2022-09-28T06:52:57;3.60;;;2.90;;
8230;SDS011;4156;50.908;6.974;2022-09-28T06:55:23;6.83;;;3.00;;
8230;SDS011;4156;50.908;6.974;2022-09-28T06:58:02;3.80;;;2.80;;
8230;SDS011;4156;50.908;6.974;2022-09-28T07:00:31;4.30;;;2.90;;
8230;SDS011;4156;50.908;6.974;2022-09-28T07:02:59;5.00;;;3.20;;
8230;SDS011;4156;50.908;6.974;2022-09-28T07:05:26;6.00;;;3.20;;
8230;SDS011;4156;50.908;6.974;2022-09-28T07:07:55;3.30;;;2.83;;
8230;SDS011;4156;50.908;6.974;2022-09-28T07:10:25;3.13;;;2.67;;
8230;SDS011;4156;50.908;6.974;2022-09-28T07:12:52;4.93;;;2.70;;
8230;SDS011;4156;50.908;6.974;2022-09-28T07:15:18;5.37;;;2.93;;
8230;SDS011;4156;50.908;6.974;2022-09-28T07:17:44;3.00;;;2.63;;
8230;SDS011;4156;50.908;6.974;2022-09-28T07:20:10;3.80;;;2.60;;
8230;SDS011;4156;50.908;6.974;2022-09-28T07:22:37;4.70;;;2.63;;
8230;SDS011;4156;50.908;6.974;2022-09-28T07:25:03;6.00;;;3.03;;
8230;SDS011;4156;50.908;6.974;2022-09-28T07:27:32;4.27;;;2.50;;
8230;SDS011;4156;50.908;6.974;2022-09-28T07:30:01;4.97;;;2.90;;
8230;SDS011;4156;50.908;6.974;2022-09-28T07:32:27;2.90;;;2.57;;
8230;SDS011;4156;50.908;6.974;2022-09-28T07:34:52;2.90;;;2.40;;
8230;SDS011;4156;50.908;6.974;2022-09-28T07:37:20;4.70;;;2.90;;
8230;SDS011;4156;50.908;6.974;2022-09-28T07:39:47;4.63;;;3.10;;
8230;SDS011;4156;50.908;6.974;2022-09-28T07:42:31;4.57;;;3.10;;
8230;SDS011;4156;50.908;6.974;2022-09-28T07:44:56;3.50;;;2.77;;
8230;SDS011;4156;50.908;6.974;2022-09-28T07:47:22;2.87;;;2.57;;
8230;SDS011;4156;50.908;6.974;2022-09-28T07:49:54;3.67;;;2.67;;
8230;SDS011;4156;50.908;6.974;2022-09-28T07:52:23;4.33;;;2.87;;
8230;SDS011;4156;50.908;6.974;2022-09-28T07:54:53;6.60;;;3.47;;
8230;SDS011;4156;50.908;6.974;2022-09-28T07:57:19;5.43;;;3.20;;
8230;SDS011;4156;50.908;6.974;2022-09-28T07:59:46;6.33;;;3.03;;
8230;SDS011;4156;50.908;6.974;2022-09-28T08:02:13;3.77;;;3.20;;
8230;SDS011;4156;50.908;6.974;2022-09-28T08:04:40;5.00;;;3.63;;
8230;SDS011;4156;50.908;6.974;2022-09-28T08:07:09;4.60;;;3.07;;
8230;SDS011;4156;50.908;6.974;2022-09-28T08:09:35;3.43;;;2.90;;
8230;SDS011;4156;50.908;6.974;2022-09-28T08:12:01;3.73;;;3.07;;
8230;SDS011;4156;50.908;6.974;2022-09-28T08:14:28;7.27;;;3.87;;
8230;SDS011;4156;50.908;6.974;2022-09-28T08:16:58;6.00;;;3.40;;
8230;SDS011;4156;50.908;6.974;2022-09-28T08:19:26;3.23;;;2.63;;
8230;SDS011;4156;50.908;6.974;2022-09-28T08:22:12;3.20;;;2.33;;
8230;SDS011;4156;50.908;6.974;2022-09-28T08:24:38;3.30;;;2.40;;
8230;SDS011;4156;50.908;6.974;2022-09-28T08:27:03;3.73;;;2.70;;
8230;SDS011;4156;50.908;6.974;2022-09-28T08:29:29;4.73;;;2.47;;
8230;SDS011;4156;50.908;6.974;2022-09-28T08:31:55;2.57;;;2.20;;
8230;SDS011;4156;50.908;6.974;2022-09-28T08:34:23;4.13;;;2.53;;
8230;SDS011;4156;50.908;6.974;2022-09-28T08:36:49;7.40;;;2.70;;
8230;SDS011;4156;50.908;6.974;2022-09-28T08:39:14;2.60;;;1.87;;
8230;SDS011;4156;50.908;6.974;2022-09-28T08:41:56;12.63;;;2.53;;
8230;SDS011;4156;50.908;6.974;2022-09-28T08:44:40;3.87;;;2.40;;
8230;SDS011;4156;50.908;6.974;2022-09-28T08:47:11;3.77;;;2.03;;
8230;SDS011;4156;50.908;6.974;2022-09-28T08:50:03;2.37;;;1.93;;
8230;SDS011;4156;50.908;6.974;2022-09-28T08:52:32;4.20;;;2.23;;
8230;SDS011;4156;50.908;6.974;2022-09-28T08:55:08;5.60;;;2.00;;
8230;SDS011;4156;50.908;6.974;2022-09-28T08:57:50;3.07;;;2.10;;
8230;SDS011;4156;50.908;6.974;2022-09-28T09:00:24;3.23;;;1.90;;
8230;SDS011;4156;50.908;6.974;2022-09-28T09:03:02;3.47;;;1.87;;
8230;SDS011;4156;50.908;6.974;2022-09-28T09:05:38;3.30;;;1.73;;
8230;SDS011;4156;50.908;6.974;2022-09-28T09:08:14;6.33;;;1.87;;
8230;SDS011;4156;50.908;6.974;2022-09-28T09:16:12;3.73;;;1.70;;
8230;SDS011;4156;50.908;6.974;2022-09-28T09:18:55;5.30;;;1.70;;
8230;SDS011;4156;50.908;6.974;2022-09-28T09:22:09;2.20;;;1.47;;
8230;SDS011;4156;50.908;6.974;2022-09-28T09:24:45;1.70;;;1.60;;
8230;SDS011;4156;50.908;6.974;2022-09-28T09:27:37;5.13;;;1.60;;
8230;SDS011;4156;50.908;6.974;2022-09-28T09:30:14;2.30;;;1.37;;
8230;SDS011;4156;50.908;6.974;2022-09-28T09:36:02;2.13;;;1.40;;
8230;SDS011;4156;50.908;6.974;2022-09-28T09:41:38;4.67;;;1.60;;
8230;SDS011;4156;50.908;6.974;2022-09-28T09:47:33;1.90;;;1.40;;
8230;SDS011;4156;50.908;6.974;2022-09-28T09:50:05;4.03;;;1.50;;
8230;SDS011;4156;50.908;6.974;2022-09-28T09:52:45;2.00;;;1.20;;
8230;SDS011;4156;50.908;6.974;2022-09-28T09:55:23;1.33;;;1.23;;
8230;SDS011;4156;50.908;6.974;2022-09-28T09:57:57;1.80;;;1.30;;
8230;SDS011;4156;50.908;6.974;2022-09-28T10:00:30;1.17;;;1.03;;
8230;SDS011;4156;50.908;6.974;2022-09-28T10:02:56;2.83;;;1.37;;
8230;SDS011;4156;50.908;6.974;2022-09-28T10:05:24;2.67;;;1.30;;
8230;SDS011;4156;50.908;6.974;2022-09-28T10:07:53;2.17;;;1.37;;
8230;SDS011;4156;50.908;6.974;2022-09-28T10:10:33;0.83;;;0.83;;
8230;SDS011;4156;50.908;6.974;2022-09-28T10:13:01;3.10;;;1.73;;
8230;SDS011;4156;50.908;6.974;2022-09-28T10:15:31;2.37;;;1.20;;
8230;SDS011;4156;50.908;6.974;2022-09-28T10:18:02;1.30;;;1.20;;
8230;SDS011;4156;50.908;6.974;2022-09-28T10:20:35;2.80;;;1.30;;
8230;SDS011;4156;50.908;6.974;2022-09-28T10:23:04;2.27;;;1.30;;
8230;SDS011;4156;50.908;6.974;2022-09-28T10:25:36;1.67;;;1.10;;
8230;SDS011;4156;50.908;6.974;2022-09-28T10:28:03;3.20;;;1.70;;
8230;SDS011;4156;50.908;6.974;2022-09-28T10:30:30;3.33;;;1.20;;
8230;SDS011;4156;50.908;6.974;2022-09-28T10:33:05;3.40;;;1.50;;
8230;SDS011;4156;50.908;6.974;2022-09-28T10:35:59;3.43;;;1.50;;
8230;SDS011;4156;50.908;6.974;2022-09-28T10:38:32;1.50;;;1.20;;
8230;SDS011;4156;50.908;6.974;2022-09-28T10:41:07;1.57;;;1.30;;
8230;SDS011;4156;50.908;6.974;2022-09-28T10:43:38;2.90;;;1.73;;
8230;SDS011;4156;50.908;6.974;2022-09-28T10:46:30;3.33;;;1.20;;
8230;SDS011;4156;50.908;6.974;2022-09-28T10:48:59;1.87;;;1.40;;
8230;SDS011;4156;50.908;6.974;2022-09-28T10:54:09;2.10;;;1.40;;
8230;SDS011;4156;50.908;6.974;2022-09-28T10:56:41;3.10;;;1.47;;
8230;SDS011;4156;50.908;6.974;2022-09-28T11:01:55;1.90;;;1.30;;
8230;SDS011;4156;50.908;6.974;2022-09-28T11:05:01;1.57;;;1.20;;
8230;SDS011;4156;50.908;6.974;2022-09-28T11:07:29;1.70;;;1.20;;
8230;SDS011;4156;50.908;6.974;2022-09-28T11:09:56;1.60;;;1.43;;
8230;SDS011;4156;50.908;6.974;2022-09-28T11:12:26;1.90;;;1.30;;
8230;SDS011;4156;50.908;6.974;2022-09-28T11:14:57;2.10;;;1.50;;
8230;SDS011;4156;50.908;6.974;2022-09-28T11:17:27;3.43;;;1.77;;
8230;SDS011;4156;50.908;6.974;2022-09-28T11:19:58;2.10;;;1.40;;
8230;SDS011;4156;50.908;6.974;2022-09-28T11:22:27;2.07;;;1.30;;
8230;SDS011;4156;50.908;6.974;2022-09-28T11:28:03;2.13;;;1.30;;
8230;SDS011;4156;50.908;6.974;2022-09-28T11:30:33;1.30;;;0.97;;
8230;SDS011;4156;50.908;6.974;2022-09-28T11:33:28;1.10;;;0.97;;
8230;SDS011;4156;50.908;6.974;2022-09-28T11:38:39;1.23;;;1.13;;
8230;SDS011;4156;50.908;6.974;2022-09-28T11:43:59;3.37;;;1.50;;
8230;SDS011;4156;50.908;6.974;2022-09-28T11:49:26;2.50;;;1.40;;
8230;SDS011;4156;50.908;6.974;2022-09-28T11:51:59;2.83;;;1.30;;
8230;SDS011;4156;50.908;6.974;2022-09-28T11:57:07;1.30;;;1.20;;
8230;SDS011;4156;50.908;6.974;2022-09-28T11:59:47;1.50;;;1.17;;
8230;SDS011;4156;50.908;6.974;2022-09-28T12:04:53;1.93;;;1.03;;
8230;SDS011;4156;50.908;6.974;2022-09-28T12:07:27;1.57;;;1.20;;
8230;SDS011;4156;50.908;6.974;2022-09-28T12:10:07;1.33;;;1.13;;
8230;SDS011;4156;50.908;6.974;2022-09-28T12:12:40;2.43;;;1.10;;
8230;SDS011;4156;50.908;6.974;2022-09-28T12:15:16;1.87;;;1.33;;
8230;SDS011;4156;50.908;6.974;2022-09-28T12:17:47;1.37;;;1.00;;
8230;SDS011;4156;50.908;6.974;2022-09-28T12:20:41;2.30;;;1.23;;
8230;SDS011;4156;50.908;6.974;2022-09-28T12:25:43;1.23;;;1.03;;
8230;SDS011;4156;50.908;6.974;2022-09-28T12:28:15;1.00;;;0.90;;
8230;SDS011;4156;50.908;6.974;2022-09-28T12:30:48;1.33;;;1.10;;
8230;SDS011;4156;50.908;6.974;2022-09-28T12:33:15;2.90;;;1.00;;
8230;SDS011;4156;50.908;6.974;2022-09-28T12:49:58;1.33;;;1.17;;
8230;SDS011;4156;50.908;6.974;2022-09-28T12:52:22;1.23;;;1.13;;
8230;SDS011;4156;50.908;6.974;2022-09-28T12:54:57;1.27;;;0.97;;
8230;SDS011;4156;50.908;6.974;2022-09-28T12:58:04;1.57;;;1.40;;
8230;SDS011;4156;50.908;6.974;2022-09-28T13:09:20;1.00;;;0.97;;
8230;SDS011;4156;50.908;6.974;2022-09-28T13:11:56;1.30;;;1.17;;
8230;SDS011;4156;50.908;6.974;2022-09-28T13:14:29;1.20;;;1.10;;
8230;SDS011;4156;50.908;6.974;2022-09-28T13:17:09;1.50;;;1.30;;
8230;SDS011;4156;50.908;6.974;2022-09-28T13:19:50;1.93;;;1.43;;
8230;SDS011;4156;50.908;6.974;2022-09-28T13:22:43;1.73;;;1.30;;
8230;SDS011;4156;50.908;6.974;2022-09-28T13:25:29;2.27;;;1.60;;
8230;SDS011;4156;50.908;6.974;2022-09-28T13:28:00;3.30;;;1.20;;
8230;SDS011;4156;50.908;6.974;2022-09-28T13:30:28;1.88;;;1.40;;
8230;SDS011;4156;50.908;6.974;2022-09-28T13:32:58;2.00;;;1.37;;
8230;SDS011;4156;50.908;6.974;2022-09-28T13:35:26;1.73;;;1.20;;
8230;SDS011;4156;50.908;6.974;2022-09-28T13:44:19;1.53;;;0.90;;
8230;SDS011;4156;50.908;6.974;2022-09-28T13:46:35;1.23;;;1.13;;
8230;SDS011;4156;50.908;6.974;2022-09-28T13:58:27;2.47;;;1.20;;
8230;SDS011;4156;50.908;6.974;2022-09-28T14:03:51;1.70;;;1.40;;
8230;SDS011;4156;50.908;6.974;2022-09-28T14:06:21;2.23;;;1.30;;
8230;SDS011;4156;50.908;6.974;2022-09-28T14:09:21;1.50;;;1.10;;
8230;SDS011;4156;50.908;6.974;2022-09-28T14:11:53;2.13;;;1.10;;
8230;SDS011;4156;50.908;6.974;2022-09-28T14:14:24;1.30;;;1.20;;
8230;SDS011;4156;50.908;6.974;2022-09-28T14:17:03;4.80;;;1.50;;
8230;SDS011;4156;50.908;6.974;2022-09-28T14:19:43;1.30;;;1.07;;
8230;SDS011;4156;50.908;6.974;2022-09-28T14:27:39;1.40;;;1.00;;
8230;SDS011;4156;50.908;6.974;2022-09-28T14:32:36;1.43;;;1.30;;
8230;SDS011;4156;50.908;6.974;2022-09-28T14:38:02;1.37;;;1.00;;
8230;SDS011;4156;50.908;6.974;2022-09-28T14:41:03;2.13;;;1.17;;
8230;SDS011;4156;50.908;6.974;2022-09-28T14:43:36;1.30;;;1.20;;
8230;SDS011;4156;50.908;6.974;2022-09-28T14:54:34;4.23;;;2.20;;
8230;SDS011;4156;50.908;6.974;2022-09-28T14:59:22;8.90;;;1.70;;
8230;SDS011;4156;50.908;6.974;2022-09-28T15:01:52;2.00;;;1.60;;
8230;SDS011;4156;50.908;6.974;2022-09-28T15:04:19;2.80;;;1.40;;
8230;SDS011;4156;50.908;6.974;2022-09-28T15:06:47;3.37;;;1.60;;
8230;SDS011;4156;50.908;6.974;2022-09-28T15:14:25;3.83;;;1.63;;
8230;SDS011;4156;50.908;6.974;2022-09-28T15:16:56;3.07;;;1.40;;
8230;SDS011;4156;50.908;6.974;2022-09-28T15:19:37;3.20;;;1.50;;
8230;SDS011;4156;50.908;6.974;2022-09-28T15:22:19;1.90;;;1.37;;
8230;SDS011;4156;50.908;6.974;2022-09-28T15:24:56;2.17;;;1.60;;
8230;SDS011;4156;50.908;6.974;2022-09-28T15:27:23;1.52;;;1.33;;
8230;SDS011;4156;50.908;6.974;2022-09-28T15:29:56;2.00;;;1.50;;
8230;SDS011;4156;50.908;6.974;2022-09-28T15:32:23;1.47;;;1.07;;
8230;SDS011;4156;50.908;6.974;2022-09-28T15:34:50;1.40;;;1.20;;
8230;SDS011;4156;50.908;6.974;2022-09-28T15:37:19;2.07;;;1.20;;
8230;SDS011;4156;50.908;6.974;2022-09-28T15:39:48;1.10;;;1.00;;
8230;SDS011;4156;50.908;6.974;2022-09-28T15:42:15;2.57;;;1.70;;
8230;SDS011;4156;50.908;6.974;2022-09-28T15:44:42;2.40;;;1.50;;
8230;SDS011;4156;50.908;6.974;2022-09-28T15:47:30;1.63;;;1.17;;
8230;SDS011;4156;50.908;6.974;2022-09-28T15:52:39;1.30;;;1.20;;
8230;SDS011;4156;50.908;6.974;2022-09-28T15:55:21;2.43;;;1.20;;
8230;SDS011;4156;50.908;6.974;2022-09-28T15:58:06;4.00;;;1.73;;
8230;SDS011;4156;50.908;6.974;2022-09-28T16:00:41;2.27;;;1.10;;
8230;SDS011;4156;50.908;6.974;2022-09-28T16:03:27;2.63;;;1.57;;
8230;SDS011;4156;50.908;6.974;2022-09-28T16:08:25;2.43;;;1.50;;
8230;SDS011;4156;50.908;6.974;2022-09-28T16:11:26;2.80;;;1.67;;
8230;SDS011;4156;50.908;6.974;2022-09-28T16:14:01;2.03;;;1.60;;
8230;SDS011;4156;50.908;6.974;2022-09-28T16:16:44;2.73;;;1.97;;
8230;SDS011;4156;50.908;6.974;2022-09-28T16:19:22;2.27;;;1.60;;
8230;SDS011;4156;50.908;6.974;2022-09-28T16:21:50;3.40;;;1.70;;
8230;SDS011;4156;50.908;6.974;2022-09-28T16:24:18;3.30;;;1.73;;
8230;SDS011;4156;50.908;6.974;2022-09-28T16:26:44;2.37;;;1.40;;
8230;SDS011;4156;50.908;6.974;2022-09-28T16:29:28;3.37;;;1.63;;
8230;SDS011;4156;50.908;6.974;2022-09-28T16:31:56;2.07;;;1.30;;
8230;SDS011;4156;50.908;6.974;2022-09-28T16:35:16;2.37;;;1.60;;
8230;SDS011;4156;50.908;6.974;2022-09-28T16:38:04;1.80;;;1.10;;
8230;SDS011;4156;50.908;6.974;2022-09-28T16:40:39;1.90;;;1.27;;
8230;SDS011;4156;50.908;6.974;2022-09-28T16:43:06;2.97;;;1.47;;
8230;SDS011;4156;50.908;6.974;2022-09-28T16:45:37;1.73;;;1.30;;
8230;SDS011;4156;50.908;6.974;2022-09-28T16:48:02;3.47;;;2.00;;
8230;SDS011;4156;50.908;6.974;2022-09-28T16:50:28;3.93;;;2.47;;
8230;SDS011;4156;50.908;6.974;2022-09-28T16:53:02;5.03;;;2.77;;
8230;SDS011;4156;50.908;6.974;2022-09-28T16:55:54;3.30;;;2.20;;
8230;SDS011;4156;50.908;6.974;2022-09-28T16:58:21;3.70;;;1.70;;
8230;SDS011;4156;50.908;6.974;2022-09-28T17:00:49;3.37;;;1.90;;
8230;SDS011;4156;50.908;6.974;2022-09-28T17:03:17;2.10;;;1.60;;
8230;SDS011;4156;50.908;6.974;2022-09-28T17:05:42;2.40;;;1.40;;
8230;SDS011;4156;50.908;6.974;2022-09-28T17:08:13;1.83;;;1.47;;
8230;SDS011;4156;50.908;6.974;2022-09-28T17:10:48;1.63;;;1.10;;
8230;SDS011;4156;50.908;6.974;2022-09-28T17:13:17;2.67;;;1.30;;
8230;SDS011;4156;50.908;6.974;2022-09-28T17:15:44;1.20;;;1.00;;
8230;SDS011;4156;50.908;6.974;2022-09-28T17:18:14;1.80;;;1.27;;
8230;SDS011;4156;50.908;6.974;2022-09-28T17:20:43;1.70;;;1.30;;
8230;SDS011;4156;50.908;6.974;2022-09-28T17:23:12;2.00;;;1.60;;
8230;SDS011;4156;50.908;6.974;2022-09-28T17:25:38;2.73;;;1.70;;
8230;SDS011;4156;50.908;6.974;2022-09-28T17:28:04;3.43;;;1.67;;
8230;SDS011;4156;50.908;6.974;2022-09-28T17:30:30;1.80;;;1.60;;
8230;SDS011;4156;50.908;6.974;2022-09-28T17:32:56;2.50;;;1.57;;
8230;SDS011;4156;50.908;6.974;2022-09-28T17:35:23;1.80;;;1.30;;
8230;SDS011;4156;50.908;6.974;2022-09-28T17:37:49;2.57;;;1.60;;
8230;SDS011;4156;50.908;6.974;2022-09-28T17:40:22;2.43;;;1.40;;
8230;SDS011;4156;50.908;6.974;2022-09-28T17:42:52;1.80;;;1.30;;
8230;SDS011;4156;50.908;6.974;2022-09-28T17:45:20;2.43;;;1.40;;
8230;SDS011;4156;50.908;6.974;2022-09-28T17:47:46;2.23;;;1.50;;
8230;SDS011;4156;50.908;6.974;2022-09-28T17:50:17;4.10;;;1.67;;
8230;SDS011;4156;50.908;6.974;2022-09-28T17:52:51;4.83;;;1.90;;
8230;SDS011;4156;50.908;6.974;2022-09-28T17:55:18;3.07;;;1.73;;
8230;SDS011;4156;50.908;6.974;2022-09-28T17:57:54;3.43;;;1.80;;
8230;SDS011;4156;50.908;6.974;2022-09-28T18:00:20;3.13;;;1.70;;
8230;SDS011;4156;50.908;6.974;2022-09-28T18:02:47;1.90;;;1.57;;
8230;SDS011;4156;50.908;6.974;2022-09-28T18:05:14;2.90;;;2.10;;
8230;SDS011;4156;50.908;6.974;2022-09-28T18:07:40;6.33;;;1.90;;